sensor_id;sensor_type;location;lat;lon;timestamp;temperature;humidity
21627;DHT22;10975;47.872;12.972;2022-09-12T00:01:23;13.90;99.90
21627;DHT22;10975;47.872;12.972;2022-09-12T00:03:55;13.90;99.90
21627;DHT22;10975;47.872;12.972;2022-09-12T00:06:23;13.90;99.90
21627;DHT22;10975;47.872;12.972;2022-09-12T00:08:50;13.90;99.90
21627;DHT22;10975;47.872;12.972;2022-09-12T00:11:19;13.90;99.90
21627;DHT22;10975;47.872;12.972;2022-09-12T00:13:45;13.90;99.90
21627;DHT22;10975;47.872;12.972;2022-09-12T00:16:15;13.90;99.90
21627;DHT22;10975;47.872;12.972;2022-09-12T00:18:43;13.90;99.90
21627;DHT22;10975;47.872;12.972;2022-09-12T00:21:12;13.90;99.90
21627;DHT22;10975;47.872;12.972;2022-09-12T00:23:39;13.80;99.90
21627;DHT22;10975;47.872;12.972;2022-09-12T00:26:06;13.80;99.90
21627;DHT22;10975;47.872;12.972;2022-09-12T00:28:33;13.80;99.90
21627;DHT22;10975;47.872;12.972;2022-09-12T00:31:03;13.80;99.90
21627;DHT22;10975;47.872;12.972;2022-09-12T00:33:30;13.80;99.90
21627;DHT22;10975;47.872;12.972;2022-09-12T00:35:57;13.80;99.90
21627;DHT22;10975;47.872;12.972;2022-09-12T00:38:23;13.80;99.90
21627;DHT22;10975;47.872;12.972;2022-09-12T00:40:50;13.70;99.90
21627;DHT22;10975;47.872;12.972;2022-09-12T00:45:56;13.70;99.90
21627;DHT22;10975;47.872;12.972;2022-09-12T00:48:26;13.60;99.90
21627;DHT22;10975;47.872;12.972;2022-09-12T00:50:56;13.60;99.90
21627;DHT22;10975;47.872;12.972;2022-09-12T00:53:23;13.60;99.90
21627;DHT22;10975;47.872;12.972;2022-09-12T00:55:51;13.60;99.90
21627;DHT22;10975;47.872;12.972;2022-09-12T00:58:25;13.60;99.90
21627;DHT22;10975;47.872;12.972;2022-09-12T01:00:52;13.60;99.90
21627;DHT22;10975;47.872;12.972;2022-09-12T01:03:20;13.50;99.90
21627;DHT22;10975;47.872;12.972;2022-09-12T01:05:51;13.50;99.90
21627;DHT22;10975;47.872;12.972;2022-09-12T01:08:18;13.60;99.90
21627;DHT22;10975;47.872;12.972;2022-09-12T01:10:46;13.50;99.90
21627;DHT22;10975;47.872;12.972;2022-09-12T01:13:13;13.50;99.90
21627;DHT22;10975;47.872;12.972;2022-09-12T01:15:40;13.50;99.90
21627;DHT22;10975;47.872;12.972;2022-09-12T01:20:45;13.50;99.90
21627;DHT22;10975;47.872;12.972;2022-09-12T01:34:34;13.40;99.90
21627;DHT22;10975;47.872;12.972;2022-09-12T01:37:16;13.40;99.90
21627;DHT22;10975;47.872;12.972;2022-09-12T01:39:49;13.30;99.90
21627;DHT22;10975;47.872;12.972;2022-09-12T01:42:31;13.30;99.90
21627;DHT22;10975;47.872;12.972;2022-09-12T01:45:02;13.30;99.90
21627;DHT22;10975;47.872;12.972;2022-09-12T01:47:42;13.20;99.90
21627;DHT22;10975;47.872;12.972;2022-09-12T01:50:20;13.20;99.90
21627;DHT22;10975;47.872;12.972;2022-09-12T01:53:37;13.20;99.90
21627;DHT22;10975;47.872;12.972;2022-09-12T01:58:04;13.10;99.90
21627;DHT22;10975;47.872;12.972;2022-09-12T02:00:32;13.10;99.90
21627;DHT22;10975;47.872;12.972;2022-09-12T02:03:01;13.00;99.90
21627;DHT22;10975;47.872;12.972;2022-09-12T02:05:31;13.00;99.90
21627;DHT22;10975;47.872;12.972;2022-09-12T02:08:04;12.90;99.90
21627;DHT22;10975;47.872;12.972;2022-09-12T02:10:42;12.90;99.90
21627;DHT22;10975;47.872;12.972;2022-09-12T02:13:31;12.80;99.90
21627;DHT22;10975;47.872;12.972;2022-09-12T02:16:47;12.80;99.90
21627;DHT22;10975;47.872;12.972;2022-09-12T02:18:49;12.70;99.90
21627;DHT22;10975;47.872;12.972;2022-09-12T02:21:18;12.60;99.90
21627;DHT22;10975;47.872;12.972;2022-09-12T02:23:46;12.60;99.90
21627;DHT22;10975;47.872;12.972;2022-09-12T02:26:23;12.50;99.90
21627;DHT22;10975;47.872;12.972;2022-09-12T02:28:51;12.50;99.90
21627;DHT22;10975;47.872;12.972;2022-09-12T02:31:28;12.40;99.90
21627;DHT22;10975;47.872;12.972;2022-09-12T02:34:13;12.40;99.90
21627;DHT22;10975;47.872;12.972;2022-09-12T02:39:08;12.30;99.90
21627;DHT22;10975;47.872;12.972;2022-09-12T02:41:35;12.30;99.90
21627;DHT22;10975;47.872;12.972;2022-09-12T02:44:02;12.30;99.90
21627;DHT22;10975;47.872;12.972;2022-09-12T02:46:32;12.30;99.90
21627;DHT22;10975;47.872;12.972;2022-09-12T02:49:01;12.20;99.90
21627;DHT22;10975;47.872;12.972;2022-09-12T02:51:28;12.20;99.90
21627;DHT22;10975;47.872;12.972;2022-09-12T02:53:55;12.20;99.90
21627;DHT22;10975;47.872;12.972;2022-09-12T02:56:24;12.20;99.90
21627;DHT22;10975;47.872;12.972;2022-09-12T02:58:51;12.10;99.90
21627;DHT22;10975;47.872;12.972;2022-09-12T03:09:04;11.90;99.90
21627;DHT22;10975;47.872;12.972;2022-09-12T03:14:30;11.70;99.90
21627;DHT22;10975;47.872;12.972;2022-09-12T03:17:06;11.70;99.90
21627;DHT22;10975;47.872;12.972;2022-09-12T03:22:15;11.70;99.90
21627;DHT22;10975;47.872;12.972;2022-09-12T03:29:44;11.70;99.90
21627;DHT22;10975;47.872;12.972;2022-09-12T03:32:13;11.70;99.90
21627;DHT22;10975;47.872;12.972;2022-09-12T03:34:39;11.70;99.90
21627;DHT22;10975;47.872;12.972;2022-09-12T03:37:06;11.60;99.90
21627;DHT22;10975;47.872;12.972;2022-09-12T03:39:33;11.60;99.90
21627;DHT22;10975;47.872;12.972;2022-09-12T03:41:59;11.60;99.90
21627;DHT22;10975;47.872;12.972;2022-09-12T03:44:26;11.50;99.90
21627;DHT22;10975;47.872;12.972;2022-09-12T03:46:53;11.60;99.90
21627;DHT22;10975;47.872;12.972;2022-09-12T03:49:19;11.60;99.90
21627;DHT22;10975;47.872;12.972;2022-09-12T03:51:46;11.50;99.90
21627;DHT22;10975;47.872;12.972;2022-09-12T03:54:13;11.50;99.90
21627;DHT22;10975;47.872;12.972;2022-09-12T03:56:39;11.40;99.90
21627;DHT22;10975;47.872;12.972;2022-09-12T03:59:07;11.40;99.90
21627;DHT22;10975;47.872;12.972;2022-09-12T04:01:33;11.40;99.90
21627;DHT22;10975;47.872;12.972;2022-09-12T04:04:00;11.40;99.90
21627;DHT22;10975;47.872;12.972;2022-09-12T04:06:27;11.40;99.90
21627;DHT22;10975;47.872;12.972;2022-09-12T04:08:54;11.30;99.90
21627;DHT22;10975;47.872;12.972;2022-09-12T04:11:21;11.30;99.90
21627;DHT22;10975;47.872;12.972;2022-09-12T04:13:48;11.30;99.90
21627;DHT22;10975;47.872;12.972;2022-09-12T04:16:15;11.30;99.90
21627;DHT22;10975;47.872;12.972;2022-09-12T04:18:43;11.30;99.90
21627;DHT22;10975;47.872;12.972;2022-09-12T04:21:11;11.20;99.90
21627;DHT22;10975;47.872;12.972;2022-09-12T04:23:38;11.20;99.90
21627;DHT22;10975;47.872;12.972;2022-09-12T04:26:04;11.20;99.90
21627;DHT22;10975;47.872;12.972;2022-09-12T04:28:35;11.20;99.90
21627;DHT22;10975;47.872;12.972;2022-09-12T04:31:03;11.10;99.90
21627;DHT22;10975;47.872;12.972;2022-09-12T04:33:31;11.10;99.90
21627;DHT22;10975;47.872;12.972;2022-09-12T04:36:02;11.10;99.90
21627;DHT22;10975;47.872;12.972;2022-09-12T04:38:29;11.00;99.90
21627;DHT22;10975;47.872;12.972;2022-09-12T04:40:56;11.00;99.90
21627;DHT22;10975;47.872;12.972;2022-09-12T04:43:22;10.80;99.90
21627;DHT22;10975;47.872;12.972;2022-09-12T04:45:49;10.70;99.90
21627;DHT22;10975;47.872;12.972;2022-09-12T04:48:16;10.80;99.90
21627;DHT22;10975;47.872;12.972;2022-09-12T04:50:42;10.80;99.90
21627;DHT22;10975;47.872;12.972;2022-09-12T04:53:09;10.80;99.90
21627;DHT22;10975;47.872;12.972;2022-09-12T04:55:36;10.90;99.90
21627;DHT22;10975;47.872;12.972;2022-09-12T04:58:02;10.90;99.90
21627;DHT22;10975;47.872;12.972;2022-09-12T05:00:29;10.90;99.90
21627;DHT22;10975;47.872;12.972;2022-09-12T05:02:56;10.90;99.90
21627;DHT22;10975;47.872;12.972;2022-09-12T05:05:23;10.80;99.90
21627;DHT22;10975;47.872;12.972;2022-09-12T05:07:49;10.80;99.90
21627;DHT22;10975;47.872;12.972;2022-09-12T05:10:16;10.90;99.90
21627;DHT22;10975;47.872;12.972;2022-09-12T05:12:43;10.90;99.90
21627;DHT22;10975;47.872;12.972;2022-09-12T05:15:10;10.90;99.90
21627;DHT22;10975;47.872;12.972;2022-09-12T05:17:37;10.90;99.90
21627;DHT22;10975;47.872;12.972;2022-09-12T05:20:03;11.00;99.90
21627;DHT22;10975;47.872;12.972;2022-09-12T05:22:30;10.90;99.90
21627;DHT22;10975;47.872;12.972;2022-09-12T05:24:57;11.00;99.90
21627;DHT22;10975;47.872;12.972;2022-09-12T05:27:23;10.90;99.90
21627;DHT22;10975;47.872;12.972;2022-09-12T05:29:50;10.90;99.90
21627;DHT22;10975;47.872;12.972;2022-09-12T05:32:17;11.00;99.90
21627;DHT22;10975;47.872;12.972;2022-09-12T05:34:44;11.00;99.90
21627;DHT22;10975;47.872;12.972;2022-09-12T05:37:11;11.00;99.90
21627;DHT22;10975;47.872;12.972;2022-09-12T05:39:38;11.00;99.90
21627;DHT22;10975;47.872;12.972;2022-09-12T05:42:04;11.00;99.90
21627;DHT22;10975;47.872;12.972;2022-09-12T05:44:31;11.00;99.90
21627;DHT22;10975;47.872;12.972;2022-09-12T05:46:58;11.00;99.90
21627;DHT22;10975;47.872;12.972;2022-09-12T05:49:25;11.00;99.90
21627;DHT22;10975;47.872;12.972;2022-09-12T05:51:52;11.00;99.90
21627;DHT22;10975;47.872;12.972;2022-09-12T05:54:18;11.10;99.90
21627;DHT22;10975;47.872;12.972;2022-09-12T05:56:46;11.10;99.90
21627;DHT22;10975;47.872;12.972;2022-09-12T05:59:14;11.20;99.90
21627;DHT22;10975;47.872;12.972;2022-09-12T06:01:41;11.30;99.90
21627;DHT22;10975;47.872;12.972;2022-09-12T06:04:08;11.30;99.90
21627;DHT22;10975;47.872;12.972;2022-09-12T06:06:37;11.40;99.90
21627;DHT22;10975;47.872;12.972;2022-09-12T06:09:04;11.50;99.90
21627;DHT22;10975;47.872;12.972;2022-09-12T06:11:32;11.60;99.90
21627;DHT22;10975;47.872;12.972;2022-09-12T06:13:59;11.60;99.90
21627;DHT22;10975;47.872;12.972;2022-09-12T06:16:27;11.70;99.90
21627;DHT22;10975;47.872;12.972;2022-09-12T06:18:55;11.70;99.90
21627;DHT22;10975;47.872;12.972;2022-09-12T06:21:23;11.80;99.90
21627;DHT22;10975;47.872;12.972;2022-09-12T06:23:50;11.90;99.90
21627;DHT22;10975;47.872;12.972;2022-09-12T06:26:17;11.90;99.90
21627;DHT22;10975;47.872;12.972;2022-09-12T06:28:46;12.00;99.90
21627;DHT22;10975;47.872;12.972;2022-09-12T06:31:14;12.00;99.90
21627;DHT22;10975;47.872;12.972;2022-09-12T06:33:42;12.00;99.90
21627;DHT22;10975;47.872;12.972;2022-09-12T06:36:11;12.10;99.90
21627;DHT22;10975;47.872;12.972;2022-09-12T06:38:38;12.20;99.90
21627;DHT22;10975;47.872;12.972;2022-09-12T06:41:05;12.20;99.90
21627;DHT22;10975;47.872;12.972;2022-09-12T06:43:33;12.30;99.90
21627;DHT22;10975;47.872;12.972;2022-09-12T06:46:00;12.40;99.90
21627;DHT22;10975;47.872;12.972;2022-09-12T06:48:27;12.40;99.90
21627;DHT22;10975;47.872;12.972;2022-09-12T06:50:57;12.50;99.90
21627;DHT22;10975;47.872;12.972;2022-09-12T06:53:24;12.50;99.90
21627;DHT22;10975;47.872;12.972;2022-09-12T06:55:58;12.60;99.90
21627;DHT22;10975;47.872;12.972;2022-09-12T06:58:26;12.60;99.90
21627;DHT22;10975;47.872;12.972;2022-09-12T07:00:59;12.70;99.90
21627;DHT22;10975;47.872;12.972;2022-09-12T07:03:27;12.70;99.90
21627;DHT22;10975;47.872;12.972;2022-09-12T07:05:54;12.80;99.90
21627;DHT22;10975;47.872;12.972;2022-09-12T07:08:21;12.80;99.90
21627;DHT22;10975;47.872;12.972;2022-09-12T07:10:48;12.90;99.90
21627;DHT22;10975;47.872;12.972;2022-09-12T07:13:14;13.00;99.90
21627;DHT22;10975;47.872;12.972;2022-09-12T07:15:41;13.00;99.90
21627;DHT22;10975;47.872;12.972;2022-09-12T07:18:08;13.10;99.90
21627;DHT22;10975;47.872;12.972;2022-09-12T07:20:35;13.20;99.90
21627;DHT22;10975;47.872;12.972;2022-09-12T07:23:02;13.30;99.90
21627;DHT22;10975;47.872;12.972;2022-09-12T07:25:29;13.30;99.90
21627;DHT22;10975;47.872;12.972;2022-09-12T07:27:55;13.40;99.90
21627;DHT22;10975;47.872;12.972;2022-09-12T07:30:22;13.50;99.90
21627;DHT22;10975;47.872;12.972;2022-09-12T07:32:52;13.50;99.90
21627;DHT22;10975;47.872;12.972;2022-09-12T07:35:19;13.60;99.90
21627;DHT22;10975;47.872;12.972;2022-09-12T07:37:46;13.70;99.90
21627;DHT22;10975;47.872;12.972;2022-09-12T07:40:13;13.80;99.90
21627;DHT22;10975;47.872;12.972;2022-09-12T07:42:40;13.80;99.90
21627;DHT22;10975;47.872;12.972;2022-09-12T07:45:06;13.90;99.90
21627;DHT22;10975;47.872;12.972;2022-09-12T07:47:33;13.90;99.90
21627;DHT22;10975;47.872;12.972;2022-09-12T07:50:00;14.00;99.90
21627;DHT22;10975;47.872;12.972;2022-09-12T07:52:27;14.10;99.90
21627;DHT22;10975;47.872;12.972;2022-09-12T07:54:54;14.10;99.90
21627;DHT22;10975;47.872;12.972;2022-09-12T07:57:21;14.20;99.90
21627;DHT22;10975;47.872;12.972;2022-09-12T07:59:48;14.30;99.90
21627;DHT22;10975;47.872;12.972;2022-09-12T08:02:18;14.30;99.90
21627;DHT22;10975;47.872;12.972;2022-09-12T08:04:46;14.40;99.90
21627;DHT22;10975;47.872;12.972;2022-09-12T08:07:13;14.50;99.90
21627;DHT22;10975;47.872;12.972;2022-09-12T08:09:40;14.50;99.90
21627;DHT22;10975;47.872;12.972;2022-09-12T08:12:07;14.60;99.90
21627;DHT22;10975;47.872;12.972;2022-09-12T08:14:33;14.60;99.90
21627;DHT22;10975;47.872;12.972;2022-09-12T08:17:00;14.70;99.90
21627;DHT22;10975;47.872;12.972;2022-09-12T08:19:27;14.70;99.90
21627;DHT22;10975;47.872;12.972;2022-09-12T08:21:53;14.80;99.90
21627;DHT22;10975;47.872;12.972;2022-09-12T08:24:20;14.80;99.90
21627;DHT22;10975;47.872;12.972;2022-09-12T08:26:47;14.90;99.90
21627;DHT22;10975;47.872;12.972;2022-09-12T08:29:13;15.00;99.90
21627;DHT22;10975;47.872;12.972;2022-09-12T08:31:40;15.10;99.90
21627;DHT22;10975;47.872;12.972;2022-09-12T08:34:07;15.10;99.90
21627;DHT22;10975;47.872;12.972;2022-09-12T08:36:34;15.10;99.90
21627;DHT22;10975;47.872;12.972;2022-09-12T08:39:03;15.20;99.90
21627;DHT22;10975;47.872;12.972;2022-09-12T08:42:16;15.30;99.90
21627;DHT22;10975;47.872;12.972;2022-09-12T08:44:38;15.40;99.90
21627;DHT22;10975;47.872;12.972;2022-09-12T08:47:29;15.40;99.90
21627;DHT22;10975;47.872;12.972;2022-09-12T08:50:02;15.50;99.90
21627;DHT22;10975;47.872;12.972;2022-09-12T08:52:32;15.50;99.90
21627;DHT22;10975;47.872;12.972;2022-09-12T08:55:01;15.60;99.90
21627;DHT22;10975;47.872;12.972;2022-09-12T08:57:28;15.70;99.90
21627;DHT22;10975;47.872;12.972;2022-09-12T08:59:54;15.70;99.90
21627;DHT22;10975;47.872;12.972;2022-09-12T09:05:39;15.80;99.90
21627;DHT22;10975;47.872;12.972;2022-09-12T09:18:14;16.10;99.90
21627;DHT22;10975;47.872;12.972;2022-09-12T09:20:59;16.20;99.90
21627;DHT22;10975;47.872;12.972;2022-09-12T09:23:35;16.20;99.90
21627;DHT22;10975;47.872;12.972;2022-09-12T09:31:11;16.40;99.90
21627;DHT22;10975;47.872;12.972;2022-09-12T09:33:39;16.40;99.90
21627;DHT22;10975;47.872;12.972;2022-09-12T09:38:54;16.50;99.90
21627;DHT22;10975;47.872;12.972;2022-09-12T09:43:51;16.60;99.90
21627;DHT22;10975;47.872;12.972;2022-09-12T09:46:18;16.60;99.90
21627;DHT22;10975;47.872;12.972;2022-09-12T09:48:46;16.70;99.90
21627;DHT22;10975;47.872;12.972;2022-09-12T09:51:15;16.70;99.90
21627;DHT22;10975;47.872;12.972;2022-09-12T09:56:10;16.80;99.90
21627;DHT22;10975;47.872;12.972;2022-09-12T09:58:40;16.80;99.90
21627;DHT22;10975;47.872;12.972;2022-09-12T10:01:14;16.90;99.90
21627;DHT22;10975;47.872;12.972;2022-09-12T10:03:48;17.00;99.90
21627;DHT22;10975;47.872;12.972;2022-09-12T10:08:46;17.10;99.90
21627;DHT22;10975;47.872;12.972;2022-09-12T10:13:41;17.20;99.90
21627;DHT22;10975;47.872;12.972;2022-09-12T10:16:27;17.30;99.90
21627;DHT22;10975;47.872;12.972;2022-09-12T10:18:55;17.30;99.90
21627;DHT22;10975;47.872;12.972;2022-09-12T10:21:38;17.30;99.90
21627;DHT22;10975;47.872;12.972;2022-09-12T10:26:40;17.50;99.90
21627;DHT22;10975;47.872;12.972;2022-09-12T10:29:26;17.50;99.90
21627;DHT22;10975;47.872;12.972;2022-09-12T10:31:55;17.60;99.90
21627;DHT22;10975;47.872;12.972;2022-09-12T10:36:56;17.70;99.90
21627;DHT22;10975;47.872;12.972;2022-09-12T10:39:24;17.70;99.90
21627;DHT22;10975;47.872;12.972;2022-09-12T10:41:51;17.70;99.90
21627;DHT22;10975;47.872;12.972;2022-09-12T10:44:25;17.70;99.90
21627;DHT22;10975;47.872;12.972;2022-09-12T10:46:53;17.80;99.90
21627;DHT22;10975;47.872;12.972;2022-09-12T10:49:22;17.80;99.90
21627;DHT22;10975;47.872;12.972;2022-09-12T10:51:49;17.90;99.90
21627;DHT22;10975;47.872;12.972;2022-09-12T10:54:17;17.90;99.90
21627;DHT22;10975;47.872;12.972;2022-09-12T10:56:47;17.90;99.90
21627;DHT22;10975;47.872;12.972;2022-09-12T10:59:24;18.00;99.90
21627;DHT22;10975;47.872;12.972;2022-09-12T11:02:00;18.10;99.90
21627;DHT22;10975;47.872;12.972;2022-09-12T11:09:37;18.30;99.90
21627;DHT22;10975;47.872;12.972;2022-09-12T11:30:13;18.80;99.90
21627;DHT22;10975;47.872;12.972;2022-09-12T11:35:28;18.90;99.90
21627;DHT22;10975;47.872;12.972;2022-09-12T11:40:54;19.00;99.90
21627;DHT22;10975;47.872;12.972;2022-09-12T11:45:54;18.90;99.90
21627;DHT22;10975;47.872;12.972;2022-09-12T11:48:27;18.90;99.90
21627;DHT22;10975;47.872;12.972;2022-09-12T11:50:58;19.00;99.90
21627;DHT22;10975;47.872;12.972;2022-09-12T11:53:27;19.10;99.90
21627;DHT22;10975;47.872;12.972;2022-09-12T11:56:05;19.10;99.90
21627;DHT22;10975;47.872;12.972;2022-09-12T11:58:34;19.20;99.90
21627;DHT22;10975;47.872;12.972;2022-09-12T12:01:13;19.20;99.90
21627;DHT22;10975;47.872;12.972;2022-09-12T12:03:42;19.40;99.90
21627;DHT22;10975;47.872;12.972;2022-09-12T12:06:10;19.50;99.90
21627;DHT22;10975;47.872;12.972;2022-09-12T12:08:38;19.50;99.90
21627;DHT22;10975;47.872;12.972;2022-09-12T12:11:06;19.50;99.90
21627;DHT22;10975;47.872;12.972;2022-09-12T12:16:06;19.60;99.90
21627;DHT22;10975;47.872;12.972;2022-09-12T12:18:36;19.60;99.90
21627;DHT22;10975;47.872;12.972;2022-09-12T12:21:47;19.60;99.90
21627;DHT22;10975;47.872;12.972;2022-09-12T12:24:42;19.60;99.90
21627;DHT22;10975;47.872;12.972;2022-09-12T12:26:57;19.70;99.90
21627;DHT22;10975;47.872;12.972;2022-09-12T12:29:35;19.70;99.90
21627;DHT22;10975;47.872;12.972;2022-09-12T12:34:36;19.70;99.90
21627;DHT22;10975;47.872;12.972;2022-09-12T12:44:58;20.00;99.90
21627;DHT22;10975;47.872;12.972;2022-09-12T12:47:31;20.00;99.90
21627;DHT22;10975;47.872;12.972;2022-09-12T12:50:41;20.00;99.90
21627;DHT22;10975;47.872;12.972;2022-09-12T12:52:58;20.00;99.90
21627;DHT22;10975;47.872;12.972;2022-09-12T12:57:57;20.20;99.90
21627;DHT22;10975;47.872;12.972;2022-09-12T13:02:55;20.30;99.90
21627;DHT22;10975;47.872;12.972;2022-09-12T13:05:23;20.30;99.90
21627;DHT22;10975;47.872;12.972;2022-09-12T13:07:55;20.20;99.90
21627;DHT22;10975;47.872;12.972;2022-09-12T13:10:27;20.30;99.90
21627;DHT22;10975;47.872;12.972;2022-09-12T13:12:55;20.30;99.90
21627;DHT22;10975;47.872;12.972;2022-09-12T13:18:18;20.40;99.90
21627;DHT22;10975;47.872;12.972;2022-09-12T13:20:49;20.50;99.90
21627;DHT22;10975;47.872;12.972;2022-09-12T13:23:21;20.60;99.90
21627;DHT22;10975;47.872;12.972;2022-09-12T13:25:53;20.60;99.90
21627;DHT22;10975;47.872;12.972;2022-09-12T13:28:20;20.60;99.90
21627;DHT22;10975;47.872;12.972;2022-09-12T13:30:53;20.60;99.90
21627;DHT22;10975;47.872;12.972;2022-09-12T13:38:41;20.70;99.90
21627;DHT22;10975;47.872;12.972;2022-09-12T13:43:56;20.90;99.90
21627;DHT22;10975;47.872;12.972;2022-09-12T13:46:30;20.90;99.90
21627;DHT22;10975;47.872;12.972;2022-09-12T13:48:58;21.00;99.90
21627;DHT22;10975;47.872;12.972;2022-09-12T13:51:26;21.00;99.90
21627;DHT22;10975;47.872;12.972;2022-09-12T13:53:54;21.00;99.90
21627;DHT22;10975;47.872;12.972;2022-09-12T13:56:23;21.10;99.90
21627;DHT22;10975;47.872;12.972;2022-09-12T13:59:00;21.00;99.90
21627;DHT22;10975;47.872;12.972;2022-09-12T14:01:44;21.00;99.90
21627;DHT22;10975;47.872;12.972;2022-09-12T14:07:00;21.00;99.90
21627;DHT22;10975;47.872;12.972;2022-09-12T14:09:31;21.00;99.90
21627;DHT22;10975;47.872;12.972;2022-09-12T14:11:59;21.00;99.90
21627;DHT22;10975;47.872;12.972;2022-09-12T14:14:33;21.00;99.90
21627;DHT22;10975;47.872;12.972;2022-09-12T14:17:14;21.00;99.90
21627;DHT22;10975;47.872;12.972;2022-09-12T14:19:47;20.90;99.90
21627;DHT22;10975;47.872;12.972;2022-09-12T14:22:14;20.90;99.90
21627;DHT22;10975;47.872;12.972;2022-09-12T14:24:47;20.90;99.90
21627;DHT22;10975;47.872;12.972;2022-09-12T14:27:16;21.00;99.90
21627;DHT22;10975;47.872;12.972;2022-09-12T14:29:44;21.00;99.90
21627;DHT22;10975;47.872;12.972;2022-09-12T14:32:22;21.10;99.90
21627;DHT22;10975;47.872;12.972;2022-09-12T14:35:02;21.10;99.90
21627;DHT22;10975;47.872;12.972;2022-09-12T14:37:29;21.10;99.90
21627;DHT22;10975;47.872;12.972;2022-09-12T14:39:56;21.10;99.90
21627;DHT22;10975;47.872;12.972;2022-09-12T14:42:24;21.10;99.90
21627;DHT22;10975;47.872;12.972;2022-09-12T14:47:20;21.10;99.90
21627;DHT22;10975;47.872;12.972;2022-09-12T14:49:48;21.10;99.90
21627;DHT22;10975;47.872;12.972;2022-09-12T14:52:22;21.10;99.90
21627;DHT22;10975;47.872;12.972;2022-09-12T15:00:09;21.10;99.90
21627;DHT22;10975;47.872;12.972;2022-09-12T15:02:40;21.00;99.90
21627;DHT22;10975;47.872;12.972;2022-09-12T15:07:36;20.80;99.90
21627;DHT22;10975;47.872;12.972;2022-09-12T15:10:04;20.70;99.90
21627;DHT22;10975;47.872;12.972;2022-09-12T15:12:31;20.80;99.90
21627;DHT22;10975;47.872;12.972;2022-09-12T15:15:11;20.70;99.90
21627;DHT22;10975;47.872;12.972;2022-09-12T15:17:38;20.70;99.90
21627;DHT22;10975;47.872;12.972;2022-09-12T15:20:04;20.60;99.90
21627;DHT22;10975;47.872;12.972;2022-09-12T15:22:32;20.60;99.90
21627;DHT22;10975;47.872;12.972;2022-09-12T15:24:59;20.50;99.90
21627;DHT22;10975;47.872;12.972;2022-09-12T15:27:26;20.50;99.90
21627;DHT22;10975;47.872;12.972;2022-09-12T15:29:53;20.50;99.90
21627;DHT22;10975;47.872;12.972;2022-09-12T15:32:23;20.40;99.90
21627;DHT22;10975;47.872;12.972;2022-09-12T15:34:50;20.40;99.90
21627;DHT22;10975;47.872;12.972;2022-09-12T15:37:18;20.40;99.90
21627;DHT22;10975;47.872;12.972;2022-09-12T15:39:45;20.50;99.90
21627;DHT22;10975;47.872;12.972;2022-09-12T15:42:12;20.50;99.90
21627;DHT22;10975;47.872;12.972;2022-09-12T15:44:40;20.50;99.90
21627;DHT22;10975;47.872;12.972;2022-09-12T15:47:12;20.50;99.90
21627;DHT22;10975;47.872;12.972;2022-09-12T15:49:39;20.50;99.90
21627;DHT22;10975;47.872;12.972;2022-09-12T15:52:06;20.50;99.90
21627;DHT22;10975;47.872;12.972;2022-09-12T15:54:33;20.50;99.90
21627;DHT22;10975;47.872;12.972;2022-09-12T15:57:00;20.40;99.90
21627;DHT22;10975;47.872;12.972;2022-09-12T15:59:27;20.40;99.90
21627;DHT22;10975;47.872;12.972;2022-09-12T16:01:54;20.40;99.90
21627;DHT22;10975;47.872;12.972;2022-09-12T16:04:21;20.40;99.90
21627;DHT22;10975;47.872;12.972;2022-09-12T16:06:49;20.30;99.90
21627;DHT22;10975;47.872;12.972;2022-09-12T16:09:17;20.30;99.90
21627;DHT22;10975;47.872;12.972;2022-09-12T16:11:44;20.30;99.90
21627;DHT22;10975;47.872;12.972;2022-09-12T16:14:12;20.20;99.90
21627;DHT22;10975;47.872;12.972;2022-09-12T16:16:39;20.10;99.90
21627;DHT22;10975;47.872;12.972;2022-09-12T16:19:06;20.00;99.90
21627;DHT22;10975;47.872;12.972;2022-09-12T16:21:35;19.90;99.90
21627;DHT22;10975;47.872;12.972;2022-09-12T16:24:02;19.80;99.90
21627;DHT22;10975;47.872;12.972;2022-09-12T16:26:29;19.60;99.90
21627;DHT22;10975;47.872;12.972;2022-09-12T16:28:56;19.50;99.90
21627;DHT22;10975;47.872;12.972;2022-09-12T16:31:23;19.40;99.90
21627;DHT22;10975;47.872;12.972;2022-09-12T16:33:51;19.30;99.90
21627;DHT22;10975;47.872;12.972;2022-09-12T16:36:18;19.20;99.90
21627;DHT22;10975;47.872;12.972;2022-09-12T16:38:46;19.10;99.90
21627;DHT22;10975;47.872;12.972;2022-09-12T16:41:13;19.10;99.90
21627;DHT22;10975;47.872;12.972;2022-09-12T16:43:41;19.00;99.90
21627;DHT22;10975;47.872;12.972;2022-09-12T16:46:09;18.90;99.90
21627;DHT22;10975;47.872;12.972;2022-09-12T16:48:40;18.80;99.90
21627;DHT22;10975;47.872;12.972;2022-09-12T16:51:07;18.80;99.90
21627;DHT22;10975;47.872;12.972;2022-09-12T16:53:35;18.80;99.90
21627;DHT22;10975;47.872;12.972;2022-09-12T16:56:03;18.70;99.90
21627;DHT22;10975;47.872;12.972;2022-09-12T16:58:31;18.70;99.90
21627;DHT22;10975;47.872;12.972;2022-09-12T17:01:02;18.70;99.90
21627;DHT22;10975;47.872;12.972;2022-09-12T17:03:29;18.60;99.90
21627;DHT22;10975;47.872;12.972;2022-09-12T17:05:59;18.60;99.90
21627;DHT22;10975;47.872;12.972;2022-09-12T17:08:27;18.50;99.90
21627;DHT22;10975;47.872;12.972;2022-09-12T17:11:00;18.40;99.90
21627;DHT22;10975;47.872;12.972;2022-09-12T17:13:28;18.30;99.90
21627;DHT22;10975;47.872;12.972;2022-09-12T17:16:14;18.20;99.90
21627;DHT22;10975;47.872;12.972;2022-09-12T17:18:42;18.10;99.90
21627;DHT22;10975;47.872;12.972;2022-09-12T17:21:08;18.00;99.90
21627;DHT22;10975;47.872;12.972;2022-09-12T17:23:36;17.90;99.90
21627;DHT22;10975;47.872;12.972;2022-09-12T17:26:03;17.80;99.90
21627;DHT22;10975;47.872;12.972;2022-09-12T17:28:30;17.70;99.90
21627;DHT22;10975;47.872;12.972;2022-09-12T17:30:58;17.70;99.90
21627;DHT22;10975;47.872;12.972;2022-09-12T17:33:25;17.60;99.90
21627;DHT22;10975;47.872;12.972;2022-09-12T17:35:52;17.40;99.90
21627;DHT22;10975;47.872;12.972;2022-09-12T17:38:19;17.30;99.90
21627;DHT22;10975;47.872;12.972;2022-09-12T17:40:50;17.30;99.90
21627;DHT22;10975;47.872;12.972;2022-09-12T17:43:25;17.20;99.90
21627;DHT22;10975;47.872;12.972;2022-09-12T17:45:55;17.10;99.90
21627;DHT22;10975;47.872;12.972;2022-09-12T17:48:24;17.00;99.90
21627;DHT22;10975;47.872;12.972;2022-09-12T17:50:51;17.00;99.90
21627;DHT22;10975;47.872;12.972;2022-09-12T17:53:18;16.90;99.90
21627;DHT22;10975;47.872;12.972;2022-09-12T17:55:44;16.90;99.90
21627;DHT22;10975;47.872;12.972;2022-09-12T17:58:11;16.80;99.90